createdAt,value
2018-07-20T00:00:22.489Z,0
2018-07-20T00:01:03.015Z,0
2018-07-20T00:01:43.542Z,0
2018-07-20T00:02:24.079Z,0
2018-07-20T00:03:04.606Z,0
2018-07-20T00:03:45.141Z,0
2018-07-20T00:04:25.662Z,0
2018-07-20T00:05:06.182Z,0
2018-07-20T00:05:48.711Z,0
2018-07-20T00:06:29.236Z,0
2018-07-20T00:07:09.767Z,0
2018-07-20T00:07:50.281Z,0
2018-07-20T00:08:30.797Z,0
2018-07-20T00:09:11.310Z,0
2018-07-20T00:09:51.846Z,0
2018-07-20T00:10:32.361Z,0
2018-07-20T00:11:12.877Z,0
2018-07-20T00:11:53.376Z,0
2018-07-20T00:12:33.880Z,0
2018-07-20T00:13:14.354Z,0
2018-07-20T00:13:54.835Z,0
2018-07-20T00:14:35.348Z,0
2018-07-20T00:15:15.877Z,0
2018-07-20T00:15:56.396Z,0
2018-07-20T00:16:36.982Z,0
2018-07-20T00:17:17.466Z,0
2018-07-20T00:17:57.983Z,0
2018-07-20T00:18:38.517Z,0
2018-07-20T00:19:19.049Z,0
2018-07-20T00:19:59.569Z,0
2018-07-20T00:20:40.094Z,0
2018-07-20T00:21:20.592Z,0
2018-07-20T00:22:01.119Z,0
2018-07-20T00:22:41.656Z,0
2018-07-20T00:23:22.173Z,0
2018-07-20T00:24:02.696Z,0
2018-07-20T00:24:43.222Z,0
2018-07-20T00:25:23.742Z,0
2018-07-20T00:26:04.307Z,0
2018-07-20T00:26:44.839Z,0
2018-07-20T00:27:25.363Z,0
2018-07-20T00:28:05.886Z,0
2018-07-20T00:28:46.396Z,0
2018-07-20T00:29:26.937Z,0
2018-07-20T00:30:07.471Z,0
2018-07-20T00:30:48.011Z,0
2018-07-20T00:33:21.564Z,0
2018-07-20T00:34:02.093Z,0
2018-07-20T00:34:42.654Z,0
2018-07-20T00:35:23.179Z,0
2018-07-20T00:36:03.701Z,0
2018-07-20T00:36:44.222Z,0
2018-07-20T00:37:24.761Z,0
2018-07-20T00:38:05.297Z,0
2018-07-20T00:38:45.848Z,0
2018-07-20T00:39:26.356Z,0
2018-07-20T00:40:06.887Z,0
2018-07-20T00:40:47.413Z,0
2018-07-20T00:41:27.932Z,0
2018-07-20T00:42:08.460Z,0
2018-07-20T00:42:48.965Z,0
2018-07-20T00:43:29.510Z,0
2018-07-20T00:44:10.040Z,0
2018-07-20T00:44:50.543Z,0
2018-07-20T00:45:31.067Z,0
2018-07-20T00:46:11.592Z,0
2018-07-20T00:46:52.082Z,0
2018-07-20T00:47:32.622Z,0
2018-07-20T00:48:13.158Z,0
2018-07-20T00:48:53.635Z,0
2018-07-20T00:49:34.173Z,0
2018-07-20T00:50:14.693Z,0
2018-07-20T00:50:55.213Z,0
2018-07-20T00:51:35.737Z,0
2018-07-20T00:52:16.257Z,0
2018-07-20T00:52:56.782Z,0
2018-07-20T00:53:37.296Z,0
2018-07-20T00:56:16.106Z,0
2018-07-20T00:56:56.641Z,0
2018-07-20T00:57:37.157Z,0
2018-07-20T00:58:17.644Z,0
2018-07-20T00:58:58.154Z,0
2018-07-20T00:59:38.648Z,0
2018-07-20T01:00:19.164Z,0
2018-07-20T01:00:59.667Z,0
2018-07-20T01:01:40.194Z,0
2018-07-20T01:02:20.698Z,0
2018-07-20T01:03:01.211Z,0
2018-07-20T01:03:41.723Z,0
2018-07-20T01:04:22.264Z,0
2018-07-20T01:05:02.776Z,0
2018-07-20T01:05:43.252Z,0
2018-07-20T01:06:23.794Z,0
2018-07-20T01:07:04.302Z,0
2018-07-20T01:07:44.825Z,0
2018-07-20T01:08:25.345Z,0
2018-07-20T01:09:05.853Z,0
2018-07-20T01:09:46.378Z,0
2018-07-20T01:10:26.919Z,0
2018-07-20T01:11:07.482Z,0
2018-07-20T01:11:48.010Z,0
2018-07-20T01:12:28.519Z,0
2018-07-20T01:13:09.036Z,0
2018-07-20T01:13:49.567Z,0
2018-07-20T01:14:30.092Z,0
2018-07-20T01:15:10.612Z,0
2018-07-20T01:15:51.114Z,0
2018-07-20T01:16:31.621Z,0
2018-07-20T01:17:12.136Z,0
2018-07-20T01:17:52.656Z,0
2018-07-20T01:18:33.186Z,0
2018-07-20T01:19:13.699Z,0
2018-07-20T01:19:54.256Z,0
2018-07-20T01:20:34.783Z,0
2018-07-20T01:21:15.325Z,0
2018-07-20T01:21:55.838Z,0
2018-07-20T01:22:36.341Z,0
2018-07-20T01:23:16.865Z,0
2018-07-20T01:23:57.373Z,0
2018-07-20T01:24:37.886Z,0
2018-07-20T01:25:18.423Z,0
2018-07-20T01:25:58.958Z,0
2018-07-20T01:26:39.473Z,0
2018-07-20T01:27:19.987Z,0
2018-07-20T01:28:00.546Z,0
2018-07-20T01:28:41.079Z,0
2018-07-20T01:29:21.597Z,0
2018-07-20T01:30:02.119Z,0
2018-07-20T01:30:42.641Z,0
2018-07-20T01:31:23.168Z,0
2018-07-20T01:32:03.683Z,0
2018-07-20T01:32:44.213Z,0
2018-07-20T01:33:24.733Z,0
2018-07-20T01:34:05.265Z,0
2018-07-20T01:34:45.826Z,0
2018-07-20T01:35:26.336Z,0
2018-07-20T01:36:06.855Z,0
2018-07-20T01:36:47.362Z,0
2018-07-20T01:37:27.874Z,0
2018-07-20T01:38:08.404Z,0
2018-07-20T01:38:48.915Z,0
2018-07-20T01:39:29.437Z,0
2018-07-20T01:40:09.954Z,0
2018-07-20T01:40:50.486Z,0
2018-07-20T01:41:31.006Z,0
2018-07-20T01:42:11.515Z,0
2018-07-20T01:42:52.025Z,0
2018-07-20T01:43:32.537Z,0
2018-07-20T01:44:13.052Z,0
2018-07-20T01:44:53.568Z,0
2018-07-20T01:45:34.267Z,0
2018-07-20T01:46:14.666Z,0
2018-07-20T01:46:55.188Z,0
2018-07-20T01:47:35.720Z,0
2018-07-20T01:48:16.255Z,0
2018-07-20T01:48:56.779Z,0
2018-07-20T01:49:37.323Z,0
2018-07-20T01:50:17.852Z,0
2018-07-20T01:50:58.361Z,0
2018-07-20T01:51:38.869Z,0
2018-07-20T01:52:19.381Z,0
2018-07-20T01:52:59.902Z,0
2018-07-20T01:53:40.421Z,0
2018-07-20T01:54:20.939Z,0
2018-07-20T01:55:01.465Z,0
2018-07-20T01:55:41.974Z,0
2018-07-20T01:56:22.501Z,0
2018-07-20T01:57:03.023Z,0
2018-07-20T01:57:43.544Z,0
2018-07-20T01:58:24.068Z,0
2018-07-20T01:59:04.569Z,0
2018-07-20T01:59:45.099Z,0
2018-07-20T02:00:25.608Z,0
2018-07-20T02:01:06.131Z,0
2018-07-20T02:01:46.637Z,0
2018-07-20T02:02:27.152Z,0
2018-07-20T02:03:07.676Z,0
2018-07-20T02:03:48.198Z,0
2018-07-20T02:04:28.718Z,0
2018-07-20T02:05:09.244Z,0
2018-07-20T02:05:49.763Z,0
2018-07-20T02:06:30.290Z,0
2018-07-20T02:07:10.814Z,0
2018-07-20T02:07:51.350Z,0
2018-07-20T02:08:31.879Z,0
2018-07-20T02:09:12.407Z,0
2018-07-20T02:09:52.928Z,0
2018-07-20T02:10:33.448Z,0
2018-07-20T02:11:13.964Z,0
2018-07-20T02:11:54.473Z,0
2018-07-20T02:12:34.984Z,0
2018-07-20T02:13:15.493Z,0
2018-07-20T02:13:56.012Z,0
2018-07-20T02:14:36.548Z,0
2018-07-20T02:15:17.049Z,0
2018-07-20T02:15:57.568Z,0
2018-07-20T02:16:38.102Z,0
2018-07-20T02:17:18.619Z,0
2018-07-20T02:17:59.142Z,0
2018-07-20T02:18:39.664Z,0
2018-07-20T02:19:20.190Z,0
2018-07-20T02:20:00.716Z,0
2018-07-20T02:20:41.227Z,0
2018-07-20T02:21:21.743Z,0
2018-07-20T02:22:02.267Z,0
2018-07-20T02:22:42.783Z,0
2018-07-20T02:23:23.313Z,0
2018-07-20T02:24:03.835Z,0
2018-07-20T02:24:44.355Z,0
2018-07-20T02:25:24.872Z,0
2018-07-20T02:26:05.391Z,0
2018-07-20T02:26:45.908Z,0
2018-07-20T02:27:26.430Z,0
2018-07-20T02:28:06.964Z,0
2018-07-20T02:28:47.487Z,0
2018-07-20T02:29:28.020Z,0
2018-07-20T02:30:08.536Z,0
2018-07-20T02:30:49.058Z,0
2018-07-20T02:31:29.569Z,0
2018-07-20T02:32:10.093Z,0
2018-07-20T02:32:50.616Z,0
2018-07-20T02:33:31.144Z,0
2018-07-20T02:34:11.659Z,0
2018-07-20T02:34:52.202Z,0
2018-07-20T02:35:32.722Z,0
2018-07-20T02:36:13.254Z,0
2018-07-20T02:36:53.786Z,0
2018-07-20T02:37:34.302Z,0
2018-07-20T02:38:14.833Z,0
2018-07-20T02:38:55.341Z,0
2018-07-20T02:39:35.870Z,0
2018-07-20T02:40:16.391Z,0
2018-07-20T02:40:56.906Z,0
2018-07-20T02:41:37.433Z,0
2018-07-20T02:42:17.965Z,0
2018-07-20T02:42:58.489Z,0
2018-07-20T02:43:39.019Z,0
2018-07-20T02:44:19.535Z,0
2018-07-20T02:45:00.055Z,0
2018-07-20T02:45:40.577Z,0
2018-07-20T02:46:21.099Z,0
2018-07-20T02:47:01.622Z,0
2018-07-20T02:47:42.142Z,0
2018-07-20T02:48:22.669Z,0
2018-07-20T02:49:03.199Z,0
2018-07-20T02:49:43.745Z,0
2018-07-20T02:50:24.250Z,0
2018-07-20T02:51:04.786Z,0
2018-07-20T02:51:45.299Z,0
2018-07-20T02:52:25.805Z,0
2018-07-20T02:53:06.313Z,0
2018-07-20T02:53:46.837Z,0
2018-07-20T02:54:27.359Z,0
2018-07-20T02:55:07.880Z,0
2018-07-20T02:55:48.395Z,0
2018-07-20T02:56:28.903Z,0
2018-07-20T02:57:09.430Z,0
2018-07-20T02:57:49.946Z,0
2018-07-20T02:58:30.468Z,0
2018-07-20T02:59:10.990Z,0
2018-07-20T02:59:51.502Z,0
2018-07-20T03:00:32.028Z,0
2018-07-20T03:01:12.541Z,0
2018-07-20T03:01:53.064Z,0
2018-07-20T03:02:33.601Z,0
2018-07-20T03:03:14.103Z,0
2018-07-20T03:03:54.609Z,0
2018-07-20T03:04:35.144Z,0
2018-07-20T03:05:15.672Z,0
2018-07-20T03:05:56.189Z,0
2018-07-20T03:06:36.714Z,0
2018-07-20T03:07:17.233Z,0
2018-07-20T03:07:57.752Z,0
2018-07-20T03:08:38.259Z,0
2018-07-20T03:09:18.778Z,0
2018-07-20T03:09:59.283Z,0
2018-07-20T03:10:39.807Z,0
2018-07-20T03:11:20.323Z,0
2018-07-20T03:12:00.855Z,0
2018-07-20T03:12:41.386Z,0
2018-07-20T03:13:21.923Z,0
2018-07-20T03:14:02.451Z,0
2018-07-20T03:14:42.969Z,0
2018-07-20T03:15:23.489Z,0
2018-07-20T03:16:04.016Z,0
2018-07-20T03:16:44.549Z,0
2018-07-20T03:17:25.074Z,0
2018-07-20T03:18:05.606Z,0
2018-07-20T03:18:46.125Z,0
2018-07-20T03:19:26.632Z,0
2018-07-20T03:20:07.154Z,0
2018-07-20T03:20:47.676Z,0
2018-07-20T03:21:28.201Z,0
2018-07-20T03:22:08.717Z,0
2018-07-20T03:22:49.236Z,0
2018-07-20T03:23:29.763Z,0
2018-07-20T03:24:10.288Z,0
2018-07-20T03:24:50.815Z,0
2018-07-20T03:25:31.331Z,0
2018-07-20T03:26:11.874Z,0
2018-07-20T03:26:52.389Z,0
2018-07-20T03:27:32.916Z,0
2018-07-20T03:28:13.438Z,0
2018-07-20T03:28:54.042Z,0
2018-07-20T03:29:34.481Z,0
2018-07-20T03:30:15.020Z,0
2018-07-20T03:30:55.538Z,0
2018-07-20T03:31:36.055Z,0
2018-07-20T03:32:16.573Z,0
2018-07-20T03:32:57.146Z,0
2018-07-20T03:33:37.617Z,0
2018-07-20T03:34:18.159Z,0
2018-07-20T03:34:58.674Z,0
2018-07-20T03:35:39.187Z,0
2018-07-20T03:36:19.723Z,0
2018-07-20T03:37:00.250Z,0
2018-07-20T03:37:40.772Z,0
2018-07-20T03:38:21.295Z,0
2018-07-20T03:39:01.830Z,5
2018-07-20T03:39:42.352Z,5
2018-07-20T03:40:23.118Z,5
2018-07-20T03:41:03.631Z,5
2018-07-20T03:41:44.149Z,5
2018-07-20T03:42:24.668Z,5
2018-07-20T03:43:05.195Z,5
2018-07-20T03:43:45.712Z,5
2018-07-20T03:44:26.234Z,5
2018-07-20T03:45:06.755Z,5
2018-07-20T03:45:47.280Z,5
2018-07-20T03:46:27.819Z,5
2018-07-20T03:47:08.337Z,5
2018-07-20T03:47:48.870Z,5
2018-07-20T03:48:29.396Z,5
2018-07-20T03:49:09.921Z,5
2018-07-20T03:49:50.440Z,5
2018-07-20T03:50:30.976Z,10
2018-07-20T03:51:11.499Z,10
2018-07-20T03:51:52.028Z,10
2018-07-20T03:52:32.567Z,10
2018-07-20T03:53:13.074Z,10
2018-07-20T03:53:53.609Z,10
2018-07-20T03:54:34.126Z,10
2018-07-20T03:55:14.655Z,10
2018-07-20T03:55:55.176Z,10
2018-07-20T03:56:35.705Z,15
2018-07-20T03:57:16.235Z,15
2018-07-20T03:57:56.752Z,15
2018-07-20T03:58:37.284Z,15
2018-07-20T03:59:17.795Z,15
2018-07-20T03:59:58.318Z,15
2018-07-20T04:00:38.841Z,15
2018-07-20T04:01:19.356Z,20
2018-07-20T04:01:59.863Z,20
2018-07-20T04:02:40.409Z,20
2018-07-20T04:03:20.932Z,20
2018-07-20T04:04:01.460Z,20
2018-07-20T04:04:41.988Z,25
2018-07-20T04:05:22.506Z,25
2018-07-20T04:06:03.028Z,25
2018-07-20T04:06:43.550Z,25
2018-07-20T04:07:24.075Z,30
2018-07-20T04:08:04.592Z,30
2018-07-20T04:08:45.120Z,30
2018-07-20T04:09:25.660Z,35
2018-07-20T04:10:06.209Z,35
2018-07-20T04:10:46.708Z,35
2018-07-20T04:11:27.224Z,40
2018-07-20T04:12:07.739Z,40
2018-07-20T04:12:48.251Z,40
2018-07-20T04:13:28.759Z,40
2018-07-20T04:14:09.274Z,45
2018-07-20T04:14:49.810Z,45
2018-07-20T04:15:30.320Z,45
2018-07-20T04:16:10.852Z,45
2018-07-20T04:16:51.368Z,45
2018-07-20T04:17:31.909Z,45
2018-07-20T04:18:12.424Z,50
2018-07-20T04:18:52.943Z,50
2018-07-20T04:19:33.464Z,55
2018-07-20T04:20:13.984Z,55
2018-07-20T04:20:54.500Z,60
2018-07-20T04:21:35.016Z,60
2018-07-20T04:22:15.533Z,65
2018-07-20T04:22:56.049Z,65
2018-07-20T04:23:36.560Z,65
2018-07-20T04:24:17.087Z,70
2018-07-20T04:24:57.604Z,70
2018-07-20T04:25:38.113Z,70
2018-07-20T04:26:18.648Z,70
2018-07-20T04:26:59.159Z,70
2018-07-20T04:27:39.679Z,75
2018-07-20T04:28:20.202Z,75
2018-07-20T04:29:00.725Z,75
2018-07-20T04:29:41.272Z,75
2018-07-20T04:30:21.796Z,75
2018-07-20T04:31:02.323Z,80
2018-07-20T04:31:42.857Z,80
2018-07-20T04:32:23.385Z,80
2018-07-20T04:33:03.920Z,90
2018-07-20T04:33:44.435Z,105
2018-07-20T04:34:24.984Z,110
2018-07-20T04:35:05.468Z,105
2018-07-20T04:35:45.987Z,100
2018-07-20T04:36:26.518Z,80
2018-07-20T04:37:07.051Z,75
2018-07-20T04:37:47.572Z,75
2018-07-20T04:38:28.100Z,70
2018-07-20T04:39:08.846Z,70
2018-07-20T04:39:49.372Z,65
2018-07-20T04:40:29.955Z,65
2018-07-20T04:41:10.435Z,60
2018-07-20T04:41:50.946Z,60
2018-07-20T04:42:31.467Z,60
2018-07-20T04:43:12.101Z,60
2018-07-20T04:43:52.713Z,60
2018-07-20T04:44:33.180Z,60
2018-07-20T04:45:13.705Z,65
2018-07-20T04:45:54.230Z,65
2018-07-20T04:46:34.774Z,65
2018-07-20T04:47:15.301Z,70
2018-07-20T04:47:55.828Z,70
2018-07-20T04:48:36.357Z,75
2018-07-20T04:49:16.905Z,75
2018-07-20T04:49:57.490Z,75
2018-07-20T04:50:37.975Z,75
2018-07-20T04:51:18.498Z,75
2018-07-20T04:51:59.024Z,80
2018-07-20T04:52:39.566Z,80
2018-07-20T04:53:20.091Z,80
2018-07-20T04:54:00.613Z,80
2018-07-20T04:54:41.145Z,80
2018-07-20T04:55:21.672Z,80
2018-07-20T04:56:02.319Z,85
2018-07-20T04:56:42.842Z,85
2018-07-20T04:57:23.363Z,85
2018-07-20T04:58:03.883Z,85
2018-07-20T04:58:44.443Z,85
2018-07-20T04:59:24.954Z,85
2018-07-20T05:00:05.480Z,85
2018-07-20T05:00:46.004Z,85
2018-07-20T05:01:26.533Z,85
2018-07-20T05:02:07.043Z,90
2018-07-20T05:02:47.566Z,90
2018-07-20T05:03:28.110Z,95
2018-07-20T05:04:08.629Z,95
2018-07-20T05:04:49.154Z,100
2018-07-20T05:05:29.682Z,105
2018-07-20T05:06:10.204Z,110
2018-07-20T05:06:50.726Z,115
2018-07-20T05:07:31.231Z,120
2018-07-20T05:08:11.766Z,120
2018-07-20T05:08:52.260Z,125
2018-07-20T05:09:32.769Z,130
2018-07-20T05:10:13.295Z,130
2018-07-20T05:10:53.804Z,135
2018-07-20T05:11:34.334Z,130
2018-07-20T05:12:14.854Z,130
2018-07-20T05:12:55.383Z,130
2018-07-20T05:13:35.884Z,140
2018-07-20T05:14:16.415Z,140
2018-07-20T05:14:56.943Z,140
2018-07-20T05:15:37.456Z,145
2018-07-20T05:16:17.985Z,145
2018-07-20T05:16:58.521Z,130
2018-07-20T05:17:39.040Z,110
2018-07-20T05:18:19.563Z,105
2018-07-20T05:19:00.072Z,100
2018-07-20T05:19:40.595Z,100
2018-07-20T05:20:21.130Z,95
2018-07-20T05:21:01.646Z,95
2018-07-20T05:21:42.165Z,90
2018-07-20T05:22:22.744Z,90
2018-07-20T05:23:03.187Z,90
2018-07-20T05:23:43.702Z,90
2018-07-20T05:24:24.202Z,90
2018-07-20T05:25:04.723Z,85
2018-07-20T05:25:45.228Z,85
2018-07-20T05:26:25.721Z,85
2018-07-20T05:27:06.207Z,90
2018-07-20T05:27:46.710Z,90
2018-07-20T05:28:27.206Z,90
2018-07-20T05:29:07.719Z,95
2018-07-20T05:29:48.289Z,95
2018-07-20T05:30:28.797Z,100
2018-07-20T05:31:09.291Z,105
2018-07-20T05:31:49.800Z,110
2018-07-20T05:32:30.381Z,110
2018-07-20T05:33:10.838Z,115
2018-07-20T05:33:51.351Z,120
2018-07-20T05:34:31.878Z,120
2018-07-20T05:35:12.410Z,120
2018-07-20T05:35:52.916Z,125
2018-07-20T05:36:33.514Z,130
2018-07-20T05:37:14.035Z,135
2018-07-20T05:37:54.548Z,135
2018-07-20T05:38:35.175Z,135
2018-07-20T05:39:15.587Z,135
2018-07-20T05:39:56.144Z,135
2018-07-20T05:40:36.590Z,135
2018-07-20T05:41:17.207Z,135
2018-07-20T05:41:57.713Z,135
2018-07-20T05:42:38.230Z,135
2018-07-20T05:43:18.840Z,135
2018-07-20T05:43:59.384Z,135
2018-07-20T05:44:39.893Z,135
2018-07-20T05:45:20.511Z,135
2018-07-20T05:46:01.035Z,135
2018-07-20T05:46:41.582Z,135
2018-07-20T05:47:22.116Z,135
2018-07-20T05:48:02.709Z,135
2018-07-20T05:48:43.263Z,135
2018-07-20T05:49:23.809Z,135
2018-07-20T05:50:04.315Z,135
2018-07-20T05:50:44.836Z,135
2018-07-20T05:51:25.391Z,135
2018-07-20T05:52:05.912Z,135
2018-07-20T05:52:46.446Z,135
2018-07-20T05:53:26.998Z,135
2018-07-20T05:54:07.467Z,135
2018-07-20T05:54:47.990Z,135
2018-07-20T05:55:28.520Z,140
2018-07-20T05:56:09.055Z,140
2018-07-20T05:56:49.578Z,150
2018-07-20T05:57:30.098Z,155
2018-07-20T05:58:10.616Z,165
2018-07-20T05:58:51.141Z,175
2018-07-20T05:59:31.655Z,175
2018-07-20T06:00:12.212Z,175
2018-07-20T06:00:52.746Z,185
2018-07-20T06:01:33.276Z,195
2018-07-20T06:02:13.801Z,205
2018-07-20T06:02:54.545Z,215
2018-07-20T06:03:35.019Z,225
2018-07-20T06:04:15.595Z,225
2018-07-20T06:04:56.174Z,225
2018-07-20T06:05:36.749Z,230
2018-07-20T06:06:17.248Z,230
2018-07-20T06:06:57.765Z,230
2018-07-20T06:07:38.280Z,230
2018-07-20T06:08:18.791Z,235
2018-07-20T06:08:59.312Z,235
2018-07-20T06:09:39.822Z,235
2018-07-20T06:10:20.372Z,230
2018-07-20T06:11:00.877Z,240
2018-07-20T06:11:41.459Z,235
2018-07-20T06:12:21.946Z,230
2018-07-20T06:13:02.465Z,235
2018-07-20T06:13:42.992Z,245
2018-07-20T06:14:23.558Z,240
2018-07-20T06:15:04.055Z,240
2018-07-20T06:15:44.599Z,245
2018-07-20T06:16:25.153Z,245
2018-07-20T06:17:05.599Z,245
2018-07-20T06:17:46.130Z,245
2018-07-20T06:18:26.642Z,245
2018-07-20T06:19:07.246Z,245
2018-07-20T06:19:47.949Z,250
2018-07-20T06:20:28.447Z,250
2018-07-20T06:21:08.976Z,250
2018-07-20T06:21:49.496Z,250
2018-07-20T06:22:30.059Z,250
2018-07-20T06:23:10.547Z,250
2018-07-20T06:23:51.063Z,245
2018-07-20T06:24:31.548Z,240
2018-07-20T06:25:12.095Z,240
2018-07-20T06:25:52.577Z,230
2018-07-20T06:26:33.092Z,215
2018-07-20T06:27:13.590Z,200
2018-07-20T06:27:54.085Z,200
2018-07-20T06:28:34.613Z,185
2018-07-20T06:29:15.200Z,155
2018-07-20T06:29:55.626Z,195
2018-07-20T06:30:36.133Z,230
2018-07-20T06:31:16.677Z,225
2018-07-20T06:31:57.416Z,235
2018-07-20T06:32:37.888Z,235
2018-07-20T06:33:18.405Z,235
2018-07-20T06:33:58.837Z,235
2018-07-20T06:34:39.316Z,235
2018-07-20T06:35:19.818Z,235
2018-07-20T06:36:00.341Z,235
2018-07-20T06:36:40.847Z,240
2018-07-20T06:37:21.404Z,240
2018-07-20T06:38:01.899Z,240
2018-07-20T06:38:42.445Z,245
2018-07-20T06:39:22.984Z,245
2018-07-20T06:40:03.506Z,245
2018-07-20T06:40:44.072Z,250
2018-07-20T06:41:24.551Z,220
2018-07-20T06:42:05.066Z,240
2018-07-20T06:42:45.604Z,250
2018-07-20T06:43:26.216Z,255
2018-07-20T06:44:06.697Z,240
2018-07-20T06:44:47.228Z,225
2018-07-20T06:45:27.747Z,210
2018-07-20T06:46:08.299Z,200
2018-07-20T06:46:48.837Z,205
2018-07-20T06:47:29.371Z,205
2018-07-20T06:48:09.902Z,180
2018-07-20T06:48:50.412Z,210
2018-07-20T06:49:31.056Z,210
2018-07-20T06:50:11.578Z,210
2018-07-20T06:50:52.098Z,205
2018-07-20T06:51:32.615Z,210
2018-07-20T06:52:13.149Z,215
2018-07-20T06:52:53.673Z,195
2018-07-20T06:53:34.196Z,200
2018-07-20T06:54:14.703Z,200
2018-07-20T06:54:55.236Z,205
2018-07-20T06:55:35.764Z,240
2018-07-20T06:56:16.306Z,255
2018-07-20T06:56:56.807Z,255
2018-07-20T06:57:37.350Z,260
2018-07-20T06:58:17.888Z,260
2018-07-20T06:58:58.399Z,260
2018-07-20T06:59:38.943Z,260
2018-07-20T07:00:19.446Z,255
2018-07-20T07:00:59.963Z,260
2018-07-20T07:01:40.483Z,250
2018-07-20T07:02:21.028Z,265
2018-07-20T07:03:01.561Z,265
2018-07-20T07:03:42.043Z,265
2018-07-20T07:04:22.543Z,260
2018-07-20T07:05:03.063Z,260
2018-07-20T07:05:43.576Z,265
2018-07-20T07:06:24.092Z,270
2018-07-20T07:07:04.637Z,275
2018-07-20T07:07:45.168Z,270
2018-07-20T07:08:25.798Z,265
2018-07-20T07:09:06.324Z,265
2018-07-20T07:09:46.919Z,270
2018-07-20T07:10:27.405Z,275
2018-07-20T07:11:07.925Z,265
2018-07-20T07:11:48.466Z,275
2018-07-20T07:12:28.989Z,260
2018-07-20T07:13:09.498Z,270
2018-07-20T07:13:50.007Z,275
2018-07-20T07:14:30.539Z,265
2018-07-20T07:15:11.103Z,275
2018-07-20T07:15:51.581Z,275
2018-07-20T07:16:32.120Z,275
2018-07-20T07:17:12.662Z,275
2018-07-20T07:17:53.149Z,270
2018-07-20T07:18:33.682Z,275
2018-07-20T07:19:14.229Z,270
2018-07-20T07:19:54.746Z,275
2018-07-20T07:20:35.275Z,270
2018-07-20T07:21:15.799Z,275
2018-07-20T07:21:56.317Z,275
2018-07-20T07:22:36.852Z,275
2018-07-20T07:23:17.359Z,275
2018-07-20T07:23:57.879Z,275
2018-07-20T07:24:38.406Z,275
2018-07-20T07:25:18.938Z,275
2018-07-20T07:25:59.549Z,275
2018-07-20T07:26:40.015Z,275
2018-07-20T07:27:20.544Z,275
2018-07-20T07:28:01.059Z,230
2018-07-20T07:28:41.560Z,180
2018-07-20T07:29:22.096Z,180
2018-07-20T07:30:02.636Z,250
2018-07-20T07:30:43.152Z,240
2018-07-20T07:31:23.677Z,240
2018-07-20T07:32:04.195Z,235
2018-07-20T07:32:44.713Z,220
2018-07-20T07:33:25.234Z,185
2018-07-20T07:34:05.773Z,170
2018-07-20T07:34:46.299Z,155
2018-07-20T07:35:26.838Z,155
2018-07-20T07:36:07.320Z,150
2018-07-20T07:36:47.827Z,145
2018-07-20T07:37:28.393Z,145
2018-07-20T07:38:08.850Z,140
2018-07-20T07:38:49.523Z,140
2018-07-20T07:39:30.043Z,140
2018-07-20T07:40:10.623Z,135
2018-07-20T07:40:51.109Z,140
2018-07-20T07:41:31.631Z,135
2018-07-20T07:42:12.165Z,130
2018-07-20T07:42:52.673Z,130
2018-07-20T07:43:33.188Z,130
2018-07-20T07:44:13.706Z,130
2018-07-20T07:44:54.223Z,135
2018-07-20T07:45:34.768Z,135
2018-07-20T07:46:15.259Z,135
2018-07-20T07:46:55.806Z,130
2018-07-20T07:47:36.293Z,125
2018-07-20T07:48:16.793Z,125
2018-07-20T07:48:57.310Z,125
2018-07-20T07:49:37.831Z,125
2018-07-20T07:50:18.357Z,125
2018-07-20T07:50:58.894Z,125
2018-07-20T07:51:39.415Z,125
2018-07-20T07:52:19.945Z,130
2018-07-20T07:53:00.497Z,130
2018-07-20T07:53:41.030Z,130
2018-07-20T07:54:21.565Z,135
2018-07-20T07:55:02.095Z,130
2018-07-20T07:55:42.607Z,135
2018-07-20T07:56:23.132Z,135
2018-07-20T07:57:03.662Z,135
2018-07-20T07:57:44.186Z,135
2018-07-20T07:58:24.647Z,135
2018-07-20T07:59:05.298Z,135
2018-07-20T07:59:45.776Z,140
2018-07-20T08:00:26.273Z,140
2018-07-20T08:01:06.785Z,145
2018-07-20T08:01:47.306Z,160
2018-07-20T08:02:27.843Z,175
2018-07-20T08:03:08.395Z,175
2018-07-20T08:03:48.831Z,190
2018-07-20T08:04:29.376Z,195
2018-07-20T08:05:09.847Z,195
2018-07-20T08:05:50.365Z,190
2018-07-20T08:06:30.890Z,195
2018-07-20T08:07:11.420Z,190
2018-07-20T08:07:51.944Z,195
2018-07-20T08:08:32.466Z,200
2018-07-20T08:09:12.949Z,200
2018-07-20T08:09:53.548Z,205
2018-07-20T08:10:33.987Z,205
2018-07-20T08:11:14.508Z,205
2018-07-20T08:11:55.038Z,210
2018-07-20T08:12:35.955Z,210
2018-07-20T08:13:16.496Z,210
2018-07-20T08:13:57.019Z,210
2018-07-20T08:14:37.540Z,215
2018-07-20T08:15:18.058Z,210
2018-07-20T08:15:58.569Z,210
2018-07-20T08:16:39.095Z,195
2018-07-20T08:17:19.622Z,190
2018-07-20T08:18:00.161Z,175
2018-07-20T08:18:40.689Z,165
2018-07-20T08:19:21.207Z,160
2018-07-20T08:20:01.710Z,160
2018-07-20T08:20:42.260Z,160
2018-07-20T08:21:22.796Z,160
2018-07-20T08:22:03.326Z,170
2018-07-20T08:22:43.838Z,180
2018-07-20T08:23:24.351Z,185
2018-07-20T08:24:04.868Z,185
2018-07-20T08:24:45.380Z,185
2018-07-20T08:25:25.925Z,190
2018-07-20T08:26:06.453Z,185
2018-07-20T08:26:46.985Z,185
2018-07-20T08:27:27.515Z,180
2018-07-20T08:28:08.071Z,175
2018-07-20T08:28:48.597Z,170
2018-07-20T08:29:29.140Z,175
2018-07-20T08:30:09.648Z,175
2018-07-20T08:30:50.150Z,170
2018-07-20T08:31:30.688Z,170
2018-07-20T08:32:11.199Z,170
2018-07-20T08:32:51.723Z,170
2018-07-20T08:33:32.255Z,165
2018-07-20T08:34:12.802Z,170
2018-07-20T08:34:53.309Z,165
2018-07-20T08:35:33.832Z,165
2018-07-20T08:36:14.366Z,165
2018-07-20T08:36:54.893Z,160
2018-07-20T08:37:35.417Z,160
2018-07-20T08:38:15.949Z,160
2018-07-20T08:38:56.457Z,160
2018-07-20T08:39:36.982Z,155
2018-07-20T08:40:17.505Z,155
2018-07-20T08:40:58.019Z,155
2018-07-20T08:41:38.649Z,155
2018-07-20T08:42:19.109Z,155
2018-07-20T08:42:59.620Z,155
2018-07-20T08:43:40.153Z,155
2018-07-20T08:44:20.689Z,150
2018-07-20T08:45:01.211Z,150
2018-07-20T08:45:41.743Z,150
2018-07-20T08:46:22.288Z,150
2018-07-20T08:47:02.795Z,150
2018-07-20T08:47:43.319Z,150
2018-07-20T08:48:23.843Z,150
2018-07-20T08:49:04.370Z,155
2018-07-20T08:49:44.899Z,150
2018-07-20T08:50:25.417Z,145
2018-07-20T08:51:05.927Z,145
2018-07-20T08:51:46.495Z,145
2018-07-20T08:52:27.032Z,145
2018-07-20T08:53:07.545Z,145
2018-07-20T08:53:48.093Z,145
2018-07-20T08:54:28.623Z,145
2018-07-20T08:55:09.127Z,140
2018-07-20T08:55:49.666Z,140
2018-07-20T08:56:30.203Z,140
2018-07-20T08:57:10.748Z,140
2018-07-20T08:57:51.274Z,140
2018-07-20T08:58:31.800Z,140
2018-07-20T08:59:12.334Z,140
2018-07-20T08:59:52.908Z,140
2018-07-20T09:00:33.407Z,140
2018-07-20T09:01:13.946Z,140
2018-07-20T09:01:54.472Z,140
2018-07-20T09:02:34.968Z,140
2018-07-20T09:03:15.500Z,135
2018-07-20T09:03:56.057Z,135
2018-07-20T09:04:36.610Z,135
2018-07-20T09:05:17.145Z,135
2018-07-20T09:05:57.675Z,135
2018-07-20T09:06:38.180Z,135
2018-07-20T09:07:18.708Z,135
2018-07-20T09:07:59.234Z,135
2018-07-20T09:08:39.754Z,135
2018-07-20T09:09:20.304Z,135
2018-07-20T09:10:00.847Z,135
2018-07-20T09:10:41.350Z,135
2018-07-20T09:11:21.854Z,140
2018-07-20T09:12:02.369Z,135
2018-07-20T09:12:42.860Z,135
2018-07-20T09:13:23.413Z,130
2018-07-20T09:14:03.811Z,130
2018-07-20T09:14:44.302Z,130
2018-07-20T09:15:24.818Z,130
2018-07-20T09:16:05.297Z,130
2018-07-20T09:16:45.815Z,130
2018-07-20T09:17:26.380Z,130
2018-07-20T09:18:06.876Z,130
2018-07-20T09:18:47.343Z,130
2018-07-20T09:19:27.851Z,135
2018-07-20T09:20:08.370Z,135
2018-07-20T09:20:48.925Z,135
2018-07-20T09:21:29.409Z,135
2018-07-20T09:22:09.922Z,135
2018-07-20T09:22:50.398Z,135
2018-07-20T09:23:30.934Z,135
2018-07-20T09:24:11.408Z,135
2018-07-20T09:24:51.983Z,135
2018-07-20T09:25:32.473Z,135
2018-07-20T09:26:13.009Z,130
2018-07-20T09:26:53.548Z,130
2018-07-20T09:27:34.062Z,130
2018-07-20T09:28:14.601Z,130
2018-07-20T09:28:55.090Z,130
2018-07-20T09:29:35.628Z,130
2018-07-20T09:30:16.143Z,130
2018-07-20T09:30:56.673Z,130
2018-07-20T09:31:37.215Z,130
2018-07-20T09:32:17.735Z,130
2018-07-20T09:32:58.262Z,130
2018-07-20T09:33:38.785Z,125
2018-07-20T09:34:19.313Z,120
2018-07-20T09:34:59.841Z,125
2018-07-20T09:35:40.372Z,125
2018-07-20T09:36:20.871Z,130
2018-07-20T09:37:01.398Z,125
2018-07-20T09:37:41.933Z,125
2018-07-20T09:38:22.472Z,125
2018-07-20T09:39:02.999Z,125
2018-07-20T09:39:43.518Z,125
2018-07-20T09:40:24.027Z,125